Time;durP1;ratioP1;P1;durP2;ratioP2;P2;SDS_P1;SDS_P2;PMS_P1;PMS_P2;Temp;Humidity;BMP_temperature;BMP_pressure;BME280_temperature;BME280_humidity;BME280_pressure;Samples;Min_cycle;Max_cycle;Signal;HPM_P1;HPM_P2
2021/12/30 00:02:00;;;;;;;12.15;11.57;;;15.10;88.20;;;;;;4964358;28;20047;-78
2021/12/30 00:04:26;;;;;;;11.75;11.25;;;15.10;88.10;;;;;;4945708;28;20058;-78
2021/12/30 00:06:52;;;;;;;11.85;11.35;;;15.10;88.10;;;;;;4970045;28;20069;-78
2021/12/30 00:09:20;;;;;;;11.82;11.27;;;15.10;88.10;;;;;;4959244;28;20028;-78
2021/12/30 00:11:46;;;;;;;11.75;11.23;;;15.10;88.10;;;;;;4971155;28;20035;-78
2021/12/30 00:14:12;;;;;;;12.77;11.55;;;15.10;88.10;;;;;;4973726;28;20039;-78
2021/12/30 00:16:39;;;;;;;11.60;11.10;;;15.10;88.10;;;;;;4973527;28;20484;-78
2021/12/30 00:19:05;;;;;;;11.65;11.15;;;15.20;88.10;;;;;;4957128;28;20396;-78
2021/12/30 00:21:31;;;;;;;11.75;11.25;;;15.20;88.10;;;;;;4958573;28;20468;-78
2021/12/30 00:23:58;;;;;;;12.35;11.75;;;15.20;88.10;;;;;;4965592;28;20035;-78
2021/12/30 00:26:24;;;;;;;12.48;11.88;;;15.20;88.00;;;;;;4962157;28;20413;-78
2021/12/30 00:28:50;;;;;;;12.35;11.75;;;15.20;88.00;;;;;;4972410;28;20038;-78
2021/12/30 00:31:16;;;;;;;12.50;11.90;;;15.20;87.90;;;;;;4971977;28;20046;-78
2021/12/30 00:33:42;;;;;;;11.90;11.40;;;15.20;87.90;;;;;;4959775;28;20035;-78
2021/12/30 00:36:09;;;;;;;12.63;12.02;;;15.20;87.90;;;;;;4942191;28;20120;-78
2021/12/30 00:38:36;;;;;;;12.93;12.32;;;15.20;87.90;;;;;;4962199;28;20055;-78
2021/12/30 00:41:02;;;;;;;12.20;11.65;;;15.20;87.90;;;;;;4969004;28;20042;-78
2021/12/30 00:43:28;;;;;;;13.43;12.82;;;15.20;87.90;;;;;;4973395;28;20035;-76
2021/12/30 00:45:54;;;;;;;14.65;13.95;;;15.20;87.80;;;;;;4973400;28;20113;-76
2021/12/30 00:48:20;;;;;;;15.88;15.15;;;15.30;87.90;;;;;;4955370;28;20043;-77
2021/12/30 00:50:47;;;;;;;14.88;14.18;;;15.20;87.80;;;;;;4961002;28;20031;-78
2021/12/30 00:53:13;;;;;;;18.35;16.73;;;15.20;87.80;;;;;;4962268;28;20036;-78
2021/12/30 00:55:39;;;;;;;18.10;16.77;;;15.20;87.80;;;;;;4962266;28;20043;-78
2021/12/30 00:58:05;;;;;;;16.45;14.85;;;15.20;87.80;;;;;;4973539;28;20022;-78
2021/12/30 01:00:31;;;;;;;14.55;13.85;;;15.20;87.90;;;;;;4970374;28;20066;-78
2021/12/30 01:02:57;;;;;;;13.90;13.30;;;15.20;87.80;;;;;;4964607;28;20031;-78
2021/12/30 01:05:24;;;;;;;19.70;18.38;;;15.20;87.80;;;;;;4962360;28;20032;-78
2021/12/30 01:07:50;;;;;;;31.05;15.75;;;15.20;87.80;;;;;;4964814;28;20061;-78
2021/12/30 01:10:17;;;;;;;14.13;13.50;;;15.20;87.80;;;;;;4945803;28;20038;-78
2021/12/30 01:12:44;;;;;;;12.90;12.30;;;15.20;87.80;;;;;;4959735;28;20022;-76
2021/12/30 01:15:11;;;;;;;14.02;13.00;;;15.20;87.80;;;;;;4969662;28;20074;-78
2021/12/30 01:18:20;;;;;;;13.82;13.18;;;15.20;87.80;;;;;;4961108;28;20268;-78
2021/12/30 01:20:27;;;;;;;14.50;13.43;;;15.20;87.70;;;;;;4960801;28;20039;-78
2021/12/30 01:22:54;;;;;;;14.07;13.45;;;15.20;87.70;;;;;;4974278;28;20198;-78
2021/12/30 01:25:20;;;;;;;15.43;14.38;;;15.20;87.70;;;;;;4955001;28;20035;-78
2021/12/30 01:27:46;;;;;;;12.73;12.13;;;15.20;87.70;;;;;;4956594;28;20035;-78
2021/12/30 01:30:14;;;;;;;12.95;12.35;;;15.20;87.80;;;;;;4970561;28;20034;-78
2021/12/30 01:32:40;;;;;;;12.35;11.77;;;15.10;87.70;;;;;;4961559;28;20030;-78
2021/12/30 01:35:08;;;;;;;13.05;12.45;;;15.10;87.70;;;;;;4964063;28;20047;-78
2021/12/30 01:37:35;;;;;;;19.35;12.13;;;15.10;87.80;;;;;;4961100;28;20500;-78
2021/12/30 01:40:01;;;;;;;13.23;12.63;;;15.10;87.80;;;;;;4960944;28;20511;-78
2021/12/30 01:42:29;;;;;;;13.98;13.05;;;15.00;87.80;;;;;;4957233;28;20046;-77
2021/12/30 01:44:55;;;;;;;13.82;13.15;;;15.00;87.80;;;;;;4971486;28;20042;-78
2021/12/30 01:47:24;;;;;;;13.73;13.02;;;15.00;87.80;;;;;;4954704;28;20481;-78
2021/12/30 01:49:51;;;;;;;12.82;12.23;;;15.00;87.80;;;;;;4966541;28;20027;-78
2021/12/30 01:52:18;;;;;;;13.25;12.60;;;15.00;87.80;;;;;;4972014;28;20035;-78
2021/12/30 01:54:44;;;;;;;13.80;13.10;;;14.90;87.80;;;;;;4973054;28;20046;-78
2021/12/30 01:57:10;;;;;;;12.98;12.38;;;14.90;87.80;;;;;;4972634;28;20031;-77
2021/12/30 01:59:36;;;;;;;13.35;12.73;;;14.90;87.80;;;;;;4970670;28;20039;-78
2021/12/30 02:02:03;;;;;;;13.48;12.88;;;14.90;87.90;;;;;;4952785;28;20042;-77
2021/12/30 02:04:29;;;;;;;15.10;14.43;;;14.90;87.90;;;;;;4963061;28;20023;-76
2021/12/30 02:06:55;;;;;;;14.52;13.85;;;14.80;87.80;;;;;;4959684;28;20400;-76
2021/12/30 02:09:21;;;;;;;15.80;15.07;;;14.80;87.90;;;;;;4967159;28;20039;-76
2021/12/30 02:11:48;;;;;;;14.48;13.77;;;14.80;88.00;;;;;;4968007;28;20035;-77
2021/12/30 02:14:14;;;;;;;14.50;13.80;;;14.80;87.90;;;;;;4962866;28;20042;-77
2021/12/30 02:16:40;;;;;;;14.70;13.57;;;14.80;87.90;;;;;;4963837;28;20035;-78
2021/12/30 02:19:06;;;;;;;13.43;12.82;;;14.70;87.90;;;;;;4950420;28;20597;-78
2021/12/30 02:21:32;;;;;;;14.50;13.80;;;14.70;87.90;;;;;;4960469;28;20030;-79
2021/12/30 02:23:59;;;;;;;13.63;13.02;;;14.70;87.90;;;;;;4971183;28;20105;-80
2021/12/30 02:26:25;;;;;;;14.52;13.82;;;14.70;87.90;;;;;;4951480;29;20062;-80
2021/12/30 02:28:51;;;;;;;13.40;12.80;;;14.70;88.00;;;;;;4966510;28;20035;-79
2021/12/30 02:31:23;;;;;;;13.30;12.70;;;14.70;88.00;;;;;;4952995;28;20027;-78
2021/12/30 02:33:49;;;;;;;13.52;12.93;;;14.60;87.90;;;;;;4958479;28;20034;-80
2021/12/30 02:36:18;;;;;;;13.35;12.75;;;14.60;87.90;;;;;;4970084;28;20050;-80
2021/12/30 02:38:44;;;;;;;14.38;13.18;;;14.60;88.00;;;;;;4970579;28;20051;-80
2021/12/30 02:41:15;;;;;;;13.80;13.20;;;14.50;87.90;;;;;;4969795;28;20042;-80
2021/12/30 02:43:41;;;;;;;14.15;13.50;;;14.50;88.00;;;;;;4969664;28;20042;-79
2021/12/30 02:46:07;;;;;;;14.88;13.98;;;14.50;88.00;;;;;;4969896;28;20534;-78
2021/12/30 02:48:35;;;;;;;13.75;13.10;;;14.50;88.00;;;;;;4954085;28;20413;-78
2021/12/30 02:51:04;;;;;;;15.63;14.75;;;14.50;88.80;;;;;;4970477;28;20050;-78
2021/12/30 02:53:30;;;;;;;15.45;14.75;;;14.50;88.10;;;;;;4970369;28;20566;-78
2021/12/30 02:55:56;;;;;;;15.38;14.68;;;14.40;88.00;;;;;;4970220;28;20516;-78
2021/12/30 02:58:23;;;;;;;13.75;13.05;;;14.40;88.80;;;;;;4968812;28;20031;-77
2021/12/30 03:00:50;;;;;;;12.77;11.95;;;14.40;88.10;;;;;;4967258;28;20404;-77
2021/12/30 03:03:19;;;;;;;31.02;12.68;;;14.40;88.10;;;;;;4965040;28;20038;-77
2021/12/30 03:05:46;;;;;;;13.38;12.77;;;14.40;88.10;;;;;;4948520;28;20042;-78
2021/12/30 03:08:12;;;;;;;13.35;12.60;;;14.40;88.80;;;;;;4949195;28;20055;-77
2021/12/30 03:10:38;;;;;;;12.82;12.23;;;14.40;88.00;;;;;;4965895;28;20600;-79
2021/12/30 03:13:10;;;;;;;12.60;12.00;;;14.40;88.00;;;;;;4966717;28;20039;-79
2021/12/30 03:15:36;;;;;;;13.18;12.50;;;14.40;87.90;;;;;;4967210;28;20097;-79
2021/12/30 03:18:03;;;;;;;13.02;12.32;;;14.40;87.90;;;;;;4951630;28;20038;-79
2021/12/30 03:20:36;;;;;;;12.75;12.15;;;14.40;87.90;;;;;;4965594;28;20023;-78
2021/12/30 03:23:02;;;;;;;11.90;11.35;;;14.40;87.90;;;;;;4965841;28;20480;-78
2021/12/30 03:25:29;;;;;;;12.38;11.77;;;14.40;87.90;;;;;;4966459;28;20027;-78
2021/12/30 03:27:55;;;;;;;12.80;12.20;;;14.40;87.90;;;;;;4966865;28;20046;-78
2021/12/30 03:30:21;;;;;;;12.77;12.10;;;14.40;87.80;;;;;;4966749;28;20026;-79
2021/12/30 03:32:47;;;;;;;10.98;10.48;;;14.50;87.90;;;;;;4968419;28;20739;-79
2021/12/30 03:35:13;;;;;;;11.93;11.35;;;14.40;87.80;;;;;;4966549;28;20031;-79
2021/12/30 03:37:39;;;;;;;11.30;10.80;;;14.50;87.80;;;;;;4966192;28;20519;-78
2021/12/30 03:40:07;;;;;;;12.20;11.60;;;14.40;87.70;;;;;;4968131;28;20052;-78
2021/12/30 03:42:33;;;;;;;13.68;12.68;;;14.40;87.80;;;;;;4969733;28;20057;-78
2021/12/30 03:45:02;;;;;;;13.05;12.45;;;14.40;87.70;;;;;;4969452;28;20042;-78
2021/12/30 03:47:28;;;;;;;12.10;11.57;;;14.40;87.70;;;;;;4969520;28;20504;-78
2021/12/30 03:49:54;;;;;;;12.10;11.55;;;14.40;87.70;;;;;;4968354;28;20031;-79
2021/12/30 03:52:27;;;;;;;12.98;11.60;;;14.40;87.70;;;;;;4972227;28;20042;-79
2021/12/30 03:54:53;;;;;;;12.85;12.20;;;14.40;87.70;;;;;;4970229;28;20815;-79
2021/12/30 03:57:19;;;;;;;12.93;12.32;;;14.40;87.80;;;;;;4971946;28;20369;-78
2021/12/30 03:59:45;;;;;;;13.82;12.35;;;14.40;87.70;;;;;;4970181;28;20039;-79
2021/12/30 04:02:11;;;;;;;12.30;11.70;;;14.40;87.70;;;;;;4969833;28;20062;-79
2021/12/30 04:04:38;;;;;;;13.57;12.88;;;14.40;87.70;;;;;;4971716;28;20031;-78
2021/12/30 04:07:04;;;;;;;13.18;12.48;;;14.40;87.70;;;;;;4954576;28;20051;-79
2021/12/30 04:09:30;;;;;;;11.82;11.32;;;14.40;87.70;;;;;;4973718;28;20050;-79
2021/12/30 04:11:56;;;;;;;11.48;10.98;;;14.40;87.70;;;;;;4970644;28;20034;-79
2021/12/30 04:14:26;;;;;;;13.57;10.88;;;14.30;87.70;;;;;;4970376;28;20027;-79
2021/12/30 04:16:53;;;;;;;11.80;11.30;;;14.30;87.70;;;;;;4971092;28;20034;-78
2021/12/30 04:19:19;;;;;;;11.63;11.13;;;14.40;87.70;;;;;;4971036;28;20031;-79
2021/12/30 04:21:45;;;;;;;11.98;11.27;;;14.40;87.70;;;;;;4972288;28;20023;-78
2021/12/30 04:24:11;;;;;;;10.88;10.38;;;14.30;87.70;;;;;;4970143;28;20380;-79
2021/12/30 04:26:37;;;;;;;11.60;11.10;;;14.30;87.70;;;;;;4966311;28;20053;-79
2021/12/30 04:29:04;;;;;;;11.70;11.20;;;14.30;87.60;;;;;;4967860;28;20405;-78
2021/12/30 04:31:31;;;;;;;11.15;10.65;;;14.40;87.70;;;;;;4969930;28;20408;-78
2021/12/30 04:33:58;;;;;;;11.32;10.82;;;14.40;87.70;;;;;;4971418;28;20039;-79
2021/12/30 04:36:24;;;;;;;11.13;10.63;;;14.40;87.60;;;;;;4971770;28;20389;-78
2021/12/30 04:38:50;;;;;;;10.70;10.20;;;14.40;87.60;;;;;;4969040;28;20059;-79
2021/12/30 04:41:16;;;;;;;11.65;11.15;;;14.40;87.60;;;;;;4968989;28;20027;-79
2021/12/30 04:43:44;;;;;;;11.90;11.20;;;14.40;88.30;;;;;;4970741;28;20050;-79
2021/12/30 04:46:10;;;;;;;12.52;11.93;;;14.40;87.60;;;;;;4969924;28;20049;-79
2021/12/30 04:48:36;;;;;;;12.65;12.05;;;14.40;87.60;;;;;;4955359;28;20054;-77
2021/12/30 04:51:02;;;;;;;13.00;12.30;;;14.40;87.60;;;;;;4970517;28;20050;-78
2021/12/30 04:53:28;;;;;;;12.65;12.05;;;14.40;87.60;;;;;;4970684;28;20503;-78
2021/12/30 04:55:54;;;;;;;11.57;11.07;;;14.40;87.50;;;;;;4967081;28;20039;-78
2021/12/30 04:58:20;;;;;;;12.77;12.18;;;14.40;87.50;;;;;;4946012;28;20073;-78
2021/12/30 05:00:47;;;;;;;14.35;13.13;;;14.40;87.40;;;;;;4970686;28;20373;-78
2021/12/30 05:03:14;;;;;;;13.85;13.25;;;14.40;87.40;;;;;;4959351;28;20061;-78
2021/12/30 05:05:45;;;;;;;19.98;19.08;;;14.40;87.40;;;;;;4962713;28;20034;-78
2021/12/30 05:08:12;;;;;;;22.02;21.02;;;14.40;87.40;;;;;;4964173;28;20043;-78
2021/12/30 05:10:38;;;;;;;22.48;20.83;;;14.40;87.40;;;;;;4962478;28;20035;-78
2021/12/30 05:13:05;;;;;;;20.05;19.10;;;14.40;87.40;;;;;;4962202;28;20031;-78
2021/12/30 05:15:32;;;;;;;22.95;20.40;;;14.40;87.40;;;;;;4956817;28;20038;-77
2021/12/30 05:17:58;;;;;;;21.50;20.50;;;14.40;88.10;;;;;;4959819;28;20039;-77
2021/12/30 05:20:24;;;;;;;21.65;20.60;;;14.40;87.40;;;;;;4970208;28;20035;-77
2021/12/30 05:22:50;;;;;;;21.45;20.45;;;14.40;87.40;;;;;;4971441;28;20031;-77
2021/12/30 05:25:18;;;;;;;23.13;22.02;;;14.40;87.40;;;;;;4971516;28;20068;-77
2021/12/30 05:27:44;;;;;;;23.98;22.90;;;14.40;87.40;;;;;;4968454;28;20416;-76
2021/12/30 05:30:11;;;;;;;23.15;22.05;;;14.40;87.40;;;;;;4959032;28;20023;-77
2021/12/30 05:32:37;;;;;;;23.15;22.05;;;14.40;87.40;;;;;;4972570;28;20038;-77
2021/12/30 05:35:04;;;;;;;22.08;21.08;;;14.40;87.40;;;;;;4964378;28;20031;-77
2021/12/30 05:37:30;;;;;;;21.60;20.60;;;14.40;87.40;;;;;;4962862;28;20100;-77
2021/12/30 05:39:56;;;;;;;21.08;20.08;;;14.40;87.30;;;;;;4960596;28;20043;-77
2021/12/30 05:42:23;;;;;;;19.75;18.85;;;14.40;87.40;;;;;;4957174;28;20507;-76
2021/12/30 05:44:53;;;;;;;21.02;20.02;;;14.40;87.30;;;;;;4972068;28;20042;-77
2021/12/30 05:47:19;;;;;;;21.77;20.77;;;14.40;87.30;;;;;;4962610;28;20050;-77
2021/12/30 05:49:45;;;;;;;23.05;21.77;;;14.40;87.30;;;;;;4962055;28;20062;-77
2021/12/30 05:52:12;;;;;;;21.55;20.52;;;14.40;87.30;;;;;;4958406;28;20032;-77
2021/12/30 05:54:42;;;;;;;21.98;20.92;;;14.40;87.30;;;;;;4972843;28;20039;-77
2021/12/30 05:57:08;;;;;;;22.77;21.67;;;14.40;87.30;;;;;;4972439;28;20050;-77
2021/12/30 05:59:34;;;;;;;20.25;19.33;;;14.40;87.30;;;;;;4961214;28;20039;-77
2021/12/30 06:02:01;;;;;;;21.88;20.88;;;14.40;87.30;;;;;;4965742;28;20055;-77
2021/12/30 06:04:27;;;;;;;22.42;21.42;;;14.40;87.20;;;;;;4970921;28;20043;-77
2021/12/30 06:06:53;;;;;;;20.58;19.63;;;14.30;87.20;;;;;;4943098;28;20404;-77
2021/12/30 06:09:22;;;;;;;19.95;19.00;;;14.30;87.20;;;;;;4972260;28;20500;-77
2021/12/30 06:11:48;;;;;;;21.27;20.27;;;14.30;87.20;;;;;;4965712;28;20023;-77
2021/12/30 06:14:14;;;;;;;20.80;19.80;;;14.30;87.20;;;;;;4964412;28;20401;-77
2021/12/30 06:16:40;;;;;;;20.80;19.80;;;14.30;87.20;;;;;;4962253;28;20031;-77
2021/12/30 06:19:06;;;;;;;22.40;21.27;;;14.40;87.30;;;;;;4961455;28;20428;-77
2021/12/30 06:21:32;;;;;;;20.88;19.83;;;14.30;87.20;;;;;;4957495;28;20027;-76
2021/12/30 06:23:58;;;;;;;18.27;17.48;;;14.40;87.20;;;;;;4972500;28;20031;-77
2021/12/30 06:26:24;;;;;;;19.55;18.65;;;14.30;87.20;;;;;;4962822;28;20039;-77
2021/12/30 06:28:51;;;;;;;18.38;17.55;;;14.30;87.20;;;;;;4960903;28;20405;-77
2021/12/30 06:31:17;;;;;;;20.30;19.30;;;14.30;87.20;;;;;;4961415;28;20034;-77
2021/12/30 06:33:43;;;;;;;19.88;18.98;;;14.40;87.20;;;;;;4971386;28;20034;-77
2021/12/30 06:36:09;;;;;;;20.20;19.30;;;14.30;87.20;;;;;;4971723;28;20034;-77
2021/12/30 06:38:35;;;;;;;20.15;18.75;;;14.30;87.20;;;;;;4960302;28;20066;-77
2021/12/30 06:41:02;;;;;;;19.67;18.77;;;14.30;87.20;;;;;;4951815;28;20050;-77
2021/12/30 06:43:28;;;;;;;19.13;18.23;;;14.30;87.10;;;;;;4961223;28;20031;-77
2021/12/30 06:45:54;;;;;;;18.88;17.98;;;14.30;87.10;;;;;;4942952;28;20408;-77
2021/12/30 06:48:20;;;;;;;18.55;17.70;;;14.30;87.10;;;;;;4971730;28;20039;-77
2021/12/30 06:50:51;;;;;;;18.67;17.80;;;14.30;87.10;;;;;;4958773;28;20031;-77
2021/12/30 06:53:19;;;;;;;19.05;18.15;;;14.30;87.10;;;;;;4959964;28;20038;-77
2021/12/30 06:55:46;;;;;;;19.20;18.30;;;14.30;87.10;;;;;;4960587;28;20031;-77
2021/12/30 06:58:12;;;;;;;20.05;18.85;;;14.30;87.10;;;;;;4965191;28;20034;-77
2021/12/30 07:00:38;;;;;;;19.70;18.80;;;14.30;87.10;;;;;;4956531;28;20054;-77
2021/12/30 07:03:05;;;;;;;19.08;18.17;;;14.30;87.10;;;;;;4957482;28;20039;-76
2021/12/30 07:05:32;;;;;;;19.50;18.60;;;14.30;87.10;;;;;;4969379;28;20392;-77
2021/12/30 07:07:58;;;;;;;20.05;18.92;;;14.30;87.10;;;;;;4960508;28;20039;-77
2021/12/30 07:10:24;;;;;;;19.13;18.23;;;14.30;87.10;;;;;;4960591;28;20027;-77
2021/12/30 07:12:50;;;;;;;18.05;17.25;;;14.30;87.10;;;;;;4958670;28;20384;-76
2021/12/30 07:15:17;;;;;;;19.70;18.77;;;14.20;87.00;;;;;;4971405;28;20034;-77
2021/12/30 07:17:43;;;;;;;19.92;19.02;;;14.30;87.10;;;;;;4958258;28;20023;-77
2021/12/30 07:20:10;;;;;;;19.63;18.73;;;14.30;87.10;;;;;;4965384;28;20042;-77
2021/12/30 07:22:36;;;;;;;19.25;18.35;;;14.30;87.10;;;;;;4964463;28;20405;-77
2021/12/30 07:25:03;;;;;;;19.50;18.60;;;14.30;87.10;;;;;;4963995;28;20030;-77
2021/12/30 07:27:29;;;;;;;19.80;18.85;;;14.30;87.10;;;;;;4973527;28;20038;-77
2021/12/30 07:29:56;;;;;;;19.35;18.45;;;14.30;87.10;;;;;;4961656;28;20050;-77
2021/12/30 07:32:22;;;;;;;19.58;18.67;;;14.30;87.10;;;;;;4964025;28;20039;-77
2021/12/30 07:34:48;;;;;;;19.30;18.40;;;14.30;87.10;;;;;;4963854;28;20035;-76
2021/12/30 07:37:16;;;;;;;20.17;19.25;;;14.20;87.00;;;;;;4966527;28;20027;-76
2021/12/30 07:39:43;;;;;;;19.52;18.63;;;14.30;87.10;;;;;;4960704;28;20412;-76
2021/12/30 07:42:09;;;;;;;21.15;20.15;;;14.30;87.10;;;;;;4944898;28;20039;-77
2021/12/30 07:44:35;;;;;;;20.00;19.10;;;14.30;87.10;;;;;;4963640;28;20035;-76
2021/12/30 07:47:01;;;;;;;21.48;20.48;;;14.20;87.00;;;;;;4963858;28;20039;-77
2021/12/30 07:49:27;;;;;;;20.42;19.52;;;14.30;87.10;;;;;;4963535;28;20054;-77
2021/12/30 07:51:53;;;;;;;20.58;19.58;;;14.20;87.00;;;;;;4962286;28;20487;-77
2021/12/30 07:54:20;;;;;;;19.92;19.02;;;14.30;87.10;;;;;;4972560;28;20039;-77
2021/12/30 07:56:46;;;;;;;20.27;19.38;;;14.20;87.00;;;;;;4975378;28;20381;-76
2021/12/30 07:59:12;;;;;;;21.83;20.52;;;14.30;87.10;;;;;;4966232;28;20042;-76
2021/12/30 08:01:38;;;;;;;21.25;20.25;;;14.30;87.10;;;;;;4964378;28;20035;-76
2021/12/30 08:04:04;;;;;;;20.27;19.27;;;14.30;87.00;;;;;;4963841;28;20042;-76
2021/12/30 08:06:30;;;;;;;21.25;20.15;;;14.30;87.00;;;;;;4959108;28;20027;-76
2021/12/30 08:08:56;;;;;;;21.02;19.92;;;14.20;87.00;;;;;;4961778;28;20043;-76
2021/12/30 08:11:22;;;;;;;21.13;20.13;;;14.30;87.10;;;;;;4964004;28;20032;-76
2021/12/30 08:13:48;;;;;;;19.33;18.42;;;14.30;87.10;;;;;;4962746;28;20035;-77
2021/12/30 08:16:15;;;;;;;19.20;18.30;;;14.20;87.00;;;;;;4945216;28;20027;-77
2021/12/30 08:18:41;;;;;;;19.45;18.55;;;14.20;87.10;;;;;;4974223;28;20392;-77
2021/12/30 08:21:08;;;;;;;19.00;18.10;;;14.20;87.00;;;;;;4943236;28;20055;-78
2021/12/30 08:23:35;;;;;;;19.55;18.65;;;14.30;87.10;;;;;;4941364;28;20596;-78
2021/12/30 08:26:05;;;;;;;20.48;19.58;;;14.20;87.00;;;;;;4967661;28;20031;-78
2021/12/30 08:28:31;;;;;;;20.45;19.48;;;14.30;87.10;;;;;;4979827;28;20053;-78
2021/12/30 08:30:57;;;;;;;21.65;20.65;;;14.30;87.00;;;;;;4973560;28;20039;-78
2021/12/30 08:33:24;;;;;;;22.40;21.30;;;14.30;87.10;;;;;;4958714;28;20036;-78
2021/12/30 08:35:50;;;;;;;19.95;19.00;;;14.30;87.00;;;;;;4974699;28;20034;-78
2021/12/30 08:38:17;;;;;;;19.13;18.23;;;14.40;87.00;;;;;;4970452;28;20047;-78
2021/12/30 08:40:45;;;;;;;22.25;20.75;;;14.40;86.90;;;;;;4963309;28;20030;-79
2021/12/30 08:43:13;;;;;;;20.20;19.30;;;14.30;86.90;;;;;;4961998;28;20035;-80
2021/12/30 08:45:39;;;;;;;18.23;17.40;;;14.40;86.90;;;;;;4958552;28;20046;-80
2021/12/30 08:48:05;;;;;;;20.55;19.55;;;14.40;86.90;;;;;;4973682;28;20353;-80
2021/12/30 08:50:32;;;;;;;17.92;17.13;;;14.40;86.80;;;;;;4973729;28;20039;-79
2021/12/30 08:52:58;;;;;;;19.42;18.52;;;14.40;86.80;;;;;;4969816;28;20039;-77
2021/12/30 08:55:24;;;;;;;18.42;17.60;;;14.50;86.90;;;;;;4971169;28;20472;-77
2021/12/30 08:57:51;;;;;;;18.98;18.08;;;14.50;86.80;;;;;;4960424;28;20031;-77
2021/12/30 09:00:25;;;;;;;20.45;19.52;;;14.50;86.70;;;;;;4973352;28;20039;-77
2021/12/30 09:02:52;;;;;;;20.10;18.52;;;14.50;86.70;;;;;;4973271;28;20035;-77
2021/12/30 09:05:18;;;;;;;21.52;20.42;;;14.50;86.70;;;;;;4956218;28;20396;-77
2021/12/30 09:07:44;;;;;;;18.83;17.92;;;14.60;86.70;;;;;;4970747;28;20034;-79
2021/12/30 09:10:11;;;;;;;20.15;19.25;;;14.60;86.60;;;;;;4972840;28;20035;-80
2021/12/30 09:12:38;;;;;;;18.73;17.83;;;14.60;86.70;;;;;;4958918;28;20035;-79
2021/12/30 09:15:05;;;;;;;19.50;18.60;;;14.60;86.60;;;;;;4974410;28;20027;-79
2021/12/30 09:17:32;;;;;;;17.70;16.90;;;14.60;86.60;;;;;;4971675;28;20034;-79
2021/12/30 09:19:58;;;;;;;18.08;17.27;;;14.70;86.70;;;;;;4973373;28;20114;-79
2021/12/30 09:22:24;;;;;;;20.90;19.80;;;14.70;86.60;;;;;;4966933;28;20039;-78
2021/12/30 09:24:50;;;;;;;19.15;18.25;;;14.70;86.60;;;;;;4966135;28;20415;-79
2021/12/30 09:27:16;;;;;;;20.30;19.40;;;14.70;86.50;;;;;;4972447;28;20042;-78
2021/12/30 09:29:42;;;;;;;19.70;18.80;;;14.80;86.60;;;;;;4973014;28;20046;-78
2021/12/30 09:32:08;;;;;;;19.80;18.80;;;14.80;86.60;;;;;;4967473;28;20477;-78
2021/12/30 09:34:34;;;;;;;18.40;17.60;;;14.80;86.40;;;;;;4966348;28;20042;-78
2021/12/30 09:37:01;;;;;;;19.55;18.65;;;14.90;86.50;;;;;;4974265;28;20035;-78
2021/12/30 09:39:27;;;;;;;20.80;19.60;;;14.90;86.40;;;;;;4956262;28;20053;-78
2021/12/30 09:41:53;;;;;;;19.20;18.30;;;14.90;86.30;;;;;;4957002;28;20038;-79
2021/12/30 09:44:19;;;;;;;19.52;18.63;;;15.00;86.40;;;;;;4971828;28;20396;-79
2021/12/30 09:46:45;;;;;;;17.17;16.38;;;15.00;86.30;;;;;;4968217;28;20035;-78
2021/12/30 09:49:18;;;;;;;19.10;18.20;;;15.10;86.30;;;;;;4963307;28;20042;-80
2021/12/30 09:51:44;;;;;;;19.02;18.02;;;15.10;86.20;;;;;;4967264;28;20034;-79
2021/12/30 09:54:10;;;;;;;17.55;16.75;;;15.10;86.20;;;;;;4954676;28;20039;-79
2021/12/30 09:56:36;;;;;;;18.95;18.05;;;15.20;86.10;;;;;;4953999;28;20072;-79
2021/12/30 09:59:03;;;;;;;19.60;18.70;;;15.20;86.10;;;;;;4968987;28;20054;-79
2021/12/30 10:01:29;;;;;;;18.77;17.90;;;15.30;86.10;;;;;;4951419;28;20512;-80
2021/12/30 10:03:59;;;;;;;22.30;21.20;;;15.30;86.10;;;;;;4959857;28;20030;-78
2021/12/30 10:06:26;;;;;;;20.92;19.92;;;15.30;86.00;;;;;;4971861;28;20066;-78
2021/12/30 10:09:09;;;;;;;21.55;20.55;;;15.30;86.00;;;;;;4974238;28;20038;-78
2021/12/30 10:11:50;;;;;;;20.77;19.77;;;15.40;86.00;;;;;;4963419;28;20027;-78
2021/12/30 10:14:33;;;;;;;26.33;24.65;;;15.40;86.00;;;;;;4970293;28;20027;-79
2021/12/30 10:17:20;;;;;;;22.40;21.40;;;15.40;86.00;;;;;;4971773;28;20034;-79
2021/12/30 10:19:46;;;;;;;21.85;20.85;;;15.40;86.00;;;;;;4935365;29;20035;-78
2021/12/30 10:22:14;;;;;;;24.10;23.00;;;15.50;86.00;;;;;;4964379;28;20027;-78
2021/12/30 10:24:40;;;;;;;22.98;21.90;;;15.50;85.90;;;;;;4972299;28;20035;-78
2021/12/30 10:27:07;;;;;;;23.63;22.52;;;15.50;85.90;;;;;;4972258;28;20023;-79
2021/12/30 10:29:43;;;;;;;19.45;18.55;;;15.50;85.90;;;;;;4968617;28;20050;-78
2021/12/30 10:32:23;;;;;;;20.40;19.50;;;15.60;85.90;;;;;;4971654;28;20053;-78
2021/12/30 10:35:08;;;;;;;19.83;18.92;;;15.60;85.80;;;;;;4971957;28;20027;-78
2021/12/30 10:37:35;;;;;;;22.83;21.67;;;15.70;85.90;;;;;;4968082;28;20484;-77
2021/12/30 10:40:01;;;;;;;22.23;21.23;;;15.70;85.80;;;;;;4968408;28;20043;-79
2021/12/30 10:42:30;;;;;;;18.13;17.33;;;15.70;85.80;;;;;;4971274;28;20404;-79
2021/12/30 10:45:06;;;;;;;20.27;19.33;;;15.70;85.70;;;;;;4969923;28;20030;-79
2021/12/30 10:47:33;;;;;;;21.45;20.45;;;15.80;85.70;;;;;;4970593;28;20447;-78
2021/12/30 10:50:05;;;;;;;22.02;20.77;;;15.80;85.60;;;;;;4954783;28;20064;-78
2021/12/30 10:52:31;;;;;;;23.25;21.80;;;15.90;85.70;;;;;;4964378;28;20033;-78
2021/12/30 10:54:59;;;;;;;23.90;22.77;;;15.90;85.50;;;;;;4963923;28;20514;-78
2021/12/30 10:57:30;;;;;;;23.30;22.23;;;16.00;85.50;;;;;;4954037;28;20073;-77
2021/12/30 10:59:56;;;;;;;22.05;21.05;;;16.00;85.50;;;;;;4972107;28;20477;-78
2021/12/30 11:02:26;;;;;;;23.00;21.55;;;16.00;85.40;;;;;;4956188;28;20054;-77
2021/12/30 11:04:57;;;;;;;20.90;19.92;;;16.10;85.40;;;;;;4965579;28;20492;-78
2021/12/30 11:07:49;;;;;;;21.90;20.90;;;16.10;85.40;;;;;;4965159;28;20023;-77
2021/12/30 11:10:16;;;;;;;21.88;20.88;;;16.10;85.40;;;;;;4955423;28;20046;-79
2021/12/30 11:12:46;;;;;;;22.83;21.75;;;16.20;85.40;;;;;;4955599;28;20025;-78
2021/12/30 11:15:22;;;;;;;21.80;20.80;;;16.20;85.30;;;;;;4955569;28;20039;-81
2021/12/30 11:17:48;;;;;;;21.88;20.88;;;16.20;85.20;;;;;;4971837;28;20053;-80
2021/12/30 11:20:16;;;;;;;20.67;19.73;;;16.30;85.20;;;;;;4971508;28;20035;-80
2021/12/30 11:22:43;;;;;;;21.13;20.13;;;16.30;85.10;;;;;;4966018;28;20046;-79
2021/12/30 11:25:10;;;;;;;21.92;20.92;;;16.40;85.10;;;;;;4951255;28;20070;-79
2021/12/30 11:27:37;;;;;;;21.85;20.85;;;16.40;85.10;;;;;;4970660;28;20039;-78
2021/12/30 11:30:06;;;;;;;23.10;22.00;;;16.40;85.00;;;;;;4970873;28;20046;-78
2021/12/30 11:32:32;;;;;;;23.02;21.92;;;16.50;85.00;;;;;;4954327;28;20038;-78
2021/12/30 11:34:59;;;;;;;22.52;21.42;;;16.50;85.00;;;;;;4963996;28;20035;-78
2021/12/30 11:37:25;;;;;;;22.50;21.42;;;16.50;84.90;;;;;;4960263;28;20042;-78
2021/12/30 11:39:53;;;;;;;20.95;19.95;;;16.50;84.90;;;;;;4965062;28;20043;-78
2021/12/30 11:42:30;;;;;;;22.65;21.58;;;16.50;84.90;;;;;;4955359;28;20038;-78
2021/12/30 11:44:58;;;;;;;21.58;20.58;;;16.60;84.90;;;;;;4958016;28;20027;-79
2021/12/30 11:47:34;;;;;;;23.13;21.75;;;16.60;84.90;;;;;;4959898;28;20032;-78
2021/12/30 11:50:26;;;;;;;21.17;20.17;;;16.60;84.90;;;;;;4961180;28;20047;-78
2021/12/30 11:53:04;;;;;;;22.40;21.13;;;16.60;84.80;;;;;;4962941;28;20038;-78
2021/12/30 11:55:57;;;;;;;22.15;21.15;;;16.70;84.80;;;;;;4976229;28;20499;-78
2021/12/30 11:58:47;;;;;;;22.08;21.08;;;16.70;84.80;;;;;;4959337;28;20050;-78
2021/12/30 12:01:13;;;;;;;21.55;20.55;;;16.70;84.60;;;;;;4960660;28;20031;-78
2021/12/30 12:03:56;;;;;;;21.73;20.73;;;16.80;84.60;;;;;;4967342;28;20027;-78
2021/12/30 12:06:25;;;;;;;22.15;21.15;;;16.80;84.40;;;;;;4972820;28;20030;-78
2021/12/30 12:09:07;;;;;;;23.65;21.45;;;16.90;84.40;;;;;;4961926;28;20043;-78
2021/12/30 12:12:04;;;;;;;22.52;21.42;;;16.90;84.30;;;;;;4974310;28;20049;-78
2021/12/30 12:14:32;;;;;;;22.75;21.67;;;17.00;84.30;;;;;;4964094;28;20047;-78
2021/12/30 12:17:11;;;;;;;22.00;21.00;;;17.00;84.20;;;;;;4963245;28;20043;-79
2021/12/30 12:19:47;;;;;;;23.70;22.60;;;17.00;84.20;;;;;;4963255;28;20053;-78
2021/12/30 12:22:19;;;;;;;21.08;20.08;;;17.00;84.20;;;;;;4954529;28;20038;-79
2021/12/30 12:24:49;;;;;;;23.98;22.88;;;17.10;84.20;;;;;;4972895;28;20039;-79
2021/12/30 12:27:18;;;;;;;24.42;23.25;;;17.10;84.10;;;;;;4972785;28;20031;-79
2021/12/30 12:29:45;;;;;;;23.42;22.33;;;17.10;84.00;;;;;;4961115;28;20047;-85
2021/12/30 12:32:16;;;;;;;27.52;25.63;;;17.20;84.10;;;;;;4969525;28;20062;-79